createdAt,value
2022-09-28T00:01:59.688Z,17.36
2022-09-28T00:04:30.010Z,17.36
2022-09-28T00:07:01.325Z,17.47
2022-09-28T00:09:31.915Z,17.56
2022-09-28T00:12:02.547Z,17.47
2022-09-28T00:14:33.179Z,17.45
2022-09-28T00:17:03.590Z,17.45
2022-09-28T00:19:34.108Z,17.31
2022-09-28T00:22:06.315Z,17.44
2022-09-28T00:24:37.033Z,17.46
2022-09-28T00:27:07.491Z,17.35
2022-09-28T00:29:38.610Z,17.35
2022-09-28T00:32:11.256Z,17.37
2022-09-28T00:34:43.789Z,17.19
2022-09-28T00:37:15.292Z,17.28
2022-09-28T00:39:46.397Z,17.28
2022-09-28T00:42:40.414Z,17.30
2022-09-28T00:45:10.649Z,17.30
2022-09-28T00:47:43.922Z,17.12
2022-09-28T00:50:29.015Z,17.11
2022-09-28T00:53:14.215Z,16.98
2022-09-28T00:55:50.959Z,16.98
2022-09-28T00:58:26.957Z,17.05
2022-09-28T01:00:59.617Z,17.05
2022-09-28T01:03:30.308Z,17.04
2022-09-28T01:06:04.142Z,16.88
2022-09-28T01:08:55.380Z,16.95
2022-09-28T01:11:27.206Z,16.92
2022-09-28T01:13:58.707Z,16.92
2022-09-28T01:16:43.694Z,16.74
2022-09-28T01:19:36.166Z,16.76
2022-09-28T01:25:30.545Z,16.78
2022-09-28T01:28:15.290Z,16.66
2022-09-28T01:30:39.719Z,16.52
2022-09-28T01:33:13.429Z,16.52
2022-09-28T01:35:55.757Z,16.29
2022-09-28T01:38:28.978Z,16.38
2022-09-28T01:41:00.803Z,16.37
2022-09-28T01:43:34.309Z,16.38
2022-09-28T01:46:22.487Z,16.38
2022-09-28T01:49:05.592Z,16.29
2022-09-28T01:51:57.233Z,16.24
2022-09-28T01:54:39.297Z,16.21
2022-09-28T01:57:14.965Z,16.39
2022-09-28T01:59:48.826Z,16.25
2022-09-28T02:02:22.557Z,16.25
2022-09-28T02:04:59.122Z,16.14
2022-09-28T02:07:44.435Z,16.14
2022-09-28T02:10:20.286Z,16.28
2022-09-28T02:12:56.779Z,16.34
2022-09-28T02:15:39.383Z,16.31
2022-09-28T02:18:13.428Z,16.28
2022-09-28T02:20:47.134Z,16.34
2022-09-28T02:23:19.904Z,16.33
2022-09-28T02:25:53.107Z,16.33
2022-09-28T02:28:23.396Z,16.33
2022-09-28T02:30:53.861Z,16.33
2022-09-28T02:33:27.084Z,16.20
2022-09-28T02:36:00.377Z,16.22
2022-09-28T02:38:32.386Z,16.31
2022-09-28T02:41:28.543Z,16.15
2022-09-28T02:44:26.176Z,16.17
2022-09-28T02:47:02.183Z,16.24
2022-09-28T02:49:44.652Z,16.24
2022-09-28T02:52:30.232Z,16.32
2022-09-28T02:58:23.866Z,16.39
2022-09-28T03:01:14.222Z,16.37
2022-09-28T03:06:50.817Z,16.32
2022-09-28T03:09:26.787Z,16.41
2022-09-28T03:11:59.979Z,16.38
2022-09-28T03:14:30.395Z,16.38
2022-09-28T03:17:00.843Z,16.38
2022-09-28T03:19:33.493Z,16.18
2022-09-28T03:22:03.896Z,16.06
2022-09-28T03:24:34.721Z,16.24
2022-09-28T03:27:05.034Z,16.07
2022-09-28T03:29:35.489Z,16.18
2022-09-28T03:32:05.940Z,16.20
2022-09-28T03:34:36.665Z,16.22
2022-09-28T03:37:07.299Z,16.22
2022-09-28T03:39:38.266Z,16.10
2022-09-28T03:42:08.701Z,16.10
2022-09-28T03:44:39.439Z,16.13
2022-09-28T03:47:10.412Z,16.13
2022-09-28T03:49:40.846Z,16.13
2022-09-28T03:52:11.545Z,16.15
2022-09-28T03:54:46.955Z,16.07
2022-09-28T03:57:14.186Z,16.07
2022-09-28T03:59:45.538Z,16.04
2022-09-28T04:02:16.188Z,16.06
2022-09-28T04:04:46.749Z,16.07
2022-09-28T04:07:17.247Z,16.08
2022-09-28T04:09:48.280Z,16.02
2022-09-28T04:12:18.663Z,16.08
2022-09-28T04:14:49.742Z,16.08
2022-09-28T04:17:20.377Z,15.98
2022-09-28T04:19:51.018Z,15.97
2022-09-28T04:22:21.330Z,15.97
2022-09-28T04:25:05.357Z,16.00
2022-09-28T04:27:36.249Z,15.90
2022-09-28T04:30:07.311Z,15.85
2022-09-28T04:32:37.729Z,15.89
2022-09-28T04:35:12.501Z,15.89
2022-09-28T04:37:43.661Z,15.83
2022-09-28T04:40:14.144Z,15.88
2022-09-28T04:42:45.618Z,15.84
2022-09-28T04:45:16.015Z,15.86
2022-09-28T04:47:46.646Z,15.94
2022-09-28T04:50:17.022Z,15.96
2022-09-28T04:52:47.390Z,16.02
2022-09-28T04:55:17.730Z,16.02
2022-09-28T04:57:48.025Z,16.04
2022-09-28T05:00:18.396Z,16.00
2022-09-28T05:02:50.784Z,15.83
2022-09-28T05:05:21.237Z,16.02
2022-09-28T05:07:53.411Z,16.12
2022-09-28T05:10:34.301Z,16.12
2022-09-28T05:13:11.114Z,16.12
2022-09-28T05:15:44.361Z,16.22
2022-09-28T05:18:15.169Z,16.24
2022-09-28T05:20:52.261Z,16.24
2022-09-28T05:23:24.396Z,16.43
2022-09-28T05:26:04.986Z,16.56
2022-09-28T05:28:46.202Z,16.37
2022-09-28T05:31:19.611Z,16.49
2022-09-28T05:33:50.159Z,16.49
2022-09-28T05:36:21.094Z,16.83
2022-09-28T09:19:42.502Z,19.70
2022-09-28T09:22:19.977Z,19.67
2022-09-28T09:25:04.907Z,19.67
2022-09-28T09:27:50.177Z,19.59
2022-09-28T09:30:21.587Z,19.59
2022-09-28T09:33:09.335Z,19.57
2022-09-28T09:35:49.138Z,19.77
2022-09-28T09:38:33.913Z,19.45
2022-09-28T09:41:26.207Z,19.37
2022-09-28T09:46:42.306Z,19.54
2022-09-28T09:49:15.512Z,19.20
2022-09-28T09:51:54.817Z,19.02
2022-09-28T09:54:28.026Z,19.08
2022-09-28T09:57:04.295Z,19.08
2022-09-28T09:59:37.353Z,19.05
2022-09-28T10:02:30.652Z,19.15
2022-09-28T10:05:12.321Z,19.15
2022-09-28T10:07:45.523Z,19.14
2022-09-28T10:10:24.615Z,19.36
2022-09-28T10:12:55.907Z,19.26
2022-09-28T10:15:29.229Z,19.26
2022-09-28T10:18:03.501Z,19.12
2022-09-28T10:20:37.254Z,19.45
2022-09-28T10:23:13.032Z,19.37
2022-09-28T10:25:46.084Z,19.37
2022-09-28T10:28:19.353Z,19.31
2022-09-28T10:30:49.723Z,19.19
2022-09-28T10:33:31.475Z,19.34
2022-09-28T10:36:04.193Z,19.34
2022-09-28T10:38:36.189Z,19.26
2022-09-28T10:41:14.037Z,19.34
2022-09-28T10:43:59.953Z,19.38
2022-09-28T10:46:30.588Z,19.49
2022-09-28T10:49:06.788Z,19.83
2022-09-28T10:51:43.435Z,19.83
2022-09-28T10:54:16.660Z,19.72
2022-09-28T10:56:48.778Z,19.72
2022-09-28T10:59:34.099Z,19.84
2022-09-28T11:02:31.312Z,19.77
2022-09-28T11:05:03.667Z,19.77
2022-09-28T11:07:37.424Z,19.67
2022-09-28T11:10:10.701Z,20.10
2022-09-28T11:12:44.173Z,20.10
2022-09-28T11:15:20.204Z,19.78
2022-09-28T11:17:54.164Z,19.78
2022-09-28T11:20:30.118Z,19.78
2022-09-28T11:23:18.324Z,19.95
2022-09-28T11:26:08.482Z,19.92
2022-09-28T11:28:40.217Z,19.93
2022-09-28T11:31:11.815Z,20.00
2022-09-28T11:33:45.473Z,20.14
2022-09-28T11:36:18.601Z,20.14
2022-09-28T11:39:06.767Z,20.21
2022-09-28T11:42:00.994Z,20.21
2022-09-28T11:44:49.354Z,20.20
2022-09-28T11:47:37.334Z,21.38
2022-09-28T11:50:28.816Z,22.41
2022-09-28T11:53:18.975Z,22.00
2022-09-28T11:56:11.069Z,22.00
2022-09-28T11:58:47.819Z,23.08
2022-09-28T12:01:22.578Z,21.63
2022-09-28T12:04:04.531Z,21.82
2022-09-28T12:06:43.626Z,21.82
2022-09-28T12:09:20.929Z,21.71
2022-09-28T12:11:56.937Z,21.56
2022-09-28T12:14:33.236Z,21.06
2022-09-28T12:17:09.559Z,20.55
2022-09-28T12:20:04.487Z,20.53
2022-09-28T12:22:46.367Z,20.35
2022-09-28T12:25:23.231Z,20.33
2022-09-28T12:31:10.315Z,20.26
2022-09-28T12:31:27.415Z,20.19
2022-09-28T12:33:46.284Z,20.26
2022-09-28T12:36:47.035Z,20.32
2022-09-28T12:39:56.654Z,20.49
2022-09-28T12:42:19.400Z,20.49
2022-09-28T12:45:13.539Z,20.32
2022-09-28T12:48:01.925Z,20.32
2022-09-28T12:50:58.353Z,20.15
2022-09-28T12:53:46.308Z,20.15
2022-09-28T12:56:25.379Z,20.18
2022-09-28T12:59:07.601Z,20.33
2022-09-28T13:01:57.964Z,20.73
2022-09-28T13:04:42.926Z,22.01
2022-09-28T13:07:20.667Z,22.57
2022-09-28T13:09:53.878Z,22.57
2022-09-28T13:12:30.302Z,24.04
2022-09-28T13:15:23.105Z,23.39
2022-09-28T13:18:05.901Z,23.39
2022-09-28T13:20:48.282Z,23.92
2022-09-28T13:26:45.246Z,24.45
2022-09-28T13:29:17.114Z,24.45
2022-09-28T13:31:55.253Z,25.67
2022-09-28T13:34:31.825Z,25.65
2022-09-28T13:37:23.279Z,24.77
2022-09-28T13:39:58.711Z,24.57
2022-09-28T13:42:46.871Z,23.87
2022-09-28T13:45:31.242Z,23.87
2022-09-28T13:48:22.952Z,22.41
2022-09-28T13:51:06.387Z,21.98
2022-09-28T13:54:03.167Z,21.98
2022-09-28T13:56:46.149Z,21.43
2022-09-28T13:59:32.138Z,21.41
2022-09-28T14:02:11.150Z,20.96
2022-09-28T14:05:00.177Z,21.02
2022-09-28T14:07:39.247Z,21.02
2022-09-28T14:10:26.170Z,20.65
2022-09-28T14:12:56.876Z,20.35
2022-09-28T14:15:35.956Z,20.35
2022-09-28T14:18:33.309Z,20.35
2022-09-28T14:21:06.510Z,20.09
2022-09-28T14:24:13.448Z,20.09
2022-09-28T14:27:04.703Z,19.79
2022-09-28T14:29:38.304Z,19.69
2022-09-28T14:32:14.313Z,19.63
2022-09-28T14:34:48.127Z,19.57
2022-09-28T14:37:30.859Z,19.57
2022-09-28T14:40:04.228Z,19.60
2022-09-28T14:42:34.949Z,19.58
2022-09-28T14:45:15.728Z,19.47
2022-09-28T14:48:13.663Z,19.54
2022-09-28T14:50:44.370Z,19.54
2022-09-28T14:53:20.632Z,19.49
2022-09-28T14:55:56.597Z,19.37
2022-09-28T14:58:29.860Z,19.37
2022-09-28T15:01:05.974Z,19.37
2022-09-28T15:03:38.657Z,19.31
2022-09-28T15:06:16.571Z,19.31
2022-09-28T15:08:47.582Z,19.22
2022-09-28T15:11:20.845Z,19.21
2022-09-28T15:13:53.545Z,19.22
2022-09-28T15:16:25.023Z,19.22
2022-09-28T15:19:08.144Z,19.02
2022-09-28T15:21:43.359Z,19.02
2022-09-28T15:24:34.485Z,18.86
2022-09-28T15:27:21.911Z,18.82
2022-09-28T15:30:04.156Z,18.82
2022-09-28T15:32:36.263Z,18.81
2022-09-28T15:35:24.791Z,18.79
2022-09-28T15:37:56.184Z,18.71
2022-09-28T15:40:35.672Z,18.71
2022-09-28T15:43:28.503Z,18.69
2022-09-28T15:46:06.825Z,18.77
2022-09-28T15:48:52.309Z,18.64
2022-09-28T15:51:24.707Z,18.64
2022-09-28T15:54:25.893Z,18.49
2022-09-28T15:56:58.050Z,18.49
2022-09-28T15:59:33.607Z,18.42
2022-09-28T16:02:22.824Z,18.38
2022-09-28T16:04:55.227Z,18.38
2022-09-28T16:07:29.056Z,18.45
2022-09-28T16:10:17.813Z,18.45
2022-09-28T16:12:54.879Z,18.42
2022-09-28T16:15:28.420Z,18.46
2022-09-28T16:18:02.188Z,18.46
2022-09-28T16:20:35.113Z,18.44
2022-09-28T16:23:18.907Z,18.42
2022-09-28T16:26:00.979Z,18.48
2022-09-28T16:28:40.497Z,18.57
2022-09-28T16:31:19.595Z,18.57
2022-09-28T16:34:11.667Z,18.57
2022-09-28T16:36:47.121Z,18.51
2022-09-28T16:39:20.289Z,18.51
2022-09-28T16:41:53.926Z,18.46
2022-09-28T16:44:28.244Z,18.48
2022-09-28T16:47:02.337Z,18.67
2022-09-28T16:49:32.980Z,18.65
2022-09-28T16:52:08.790Z,18.49
2022-09-28T16:54:39.502Z,18.47
2022-09-28T16:57:13.077Z,18.35
2022-09-28T16:59:45.213Z,18.19
2022-09-28T17:02:45.609Z,18.18
2022-09-28T17:04:55.583Z,18.26
2022-09-28T17:07:37.016Z,18.26
2022-09-28T17:10:23.488Z,18.26
2022-09-28T17:12:54.665Z,18.07
2022-09-28T17:15:27.172Z,18.07
2022-09-28T17:17:59.077Z,18.18
2022-09-28T17:20:32.292Z,17.97
2022-09-28T17:23:03.826Z,18.07
2022-09-28T17:25:35.872Z,17.92
2022-09-28T17:28:06.530Z,17.86
2022-09-28T17:30:36.995Z,17.93
2022-09-28T17:33:08.945Z,17.89
2022-09-28T17:35:39.911Z,17.67
2022-09-28T17:38:13.641Z,17.52
2022-09-28T17:40:45.122Z,17.55
2022-09-28T17:43:15.673Z,17.48
2022-09-28T17:45:47.580Z,17.45
2022-09-28T17:48:21.151Z,17.43
2022-09-28T17:50:54.241Z,17.49
2022-09-28T17:53:29.235Z,17.49
2022-09-28T17:56:02.616Z,17.44
2022-09-28T17:58:32.996Z,17.37
2022-09-28T18:01:10.331Z,17.37
2022-09-28T18:03:43.218Z,17.29
2022-09-28T18:06:16.786Z,17.29
2022-09-28T18:08:47.086Z,17.19
2022-09-28T18:11:17.618Z,17.19
2022-09-28T18:13:50.552Z,17.13
2022-09-28T18:16:21.465Z,17.13
2022-09-28T18:18:51.964Z,17.12
2022-09-28T18:21:22.893Z,17.08
2022-09-28T18:23:54.550Z,17.05
2022-09-28T18:26:24.763Z,16.96
2022-09-28T18:28:55.591Z,16.94
2022-09-28T18:31:26.095Z,16.94
2022-09-28T18:34:00.726Z,16.96
2022-09-28T18:36:33.034Z,16.98
2022-09-28T18:39:04.048Z,16.98
2022-09-28T18:41:34.379Z,16.95
2022-09-28T18:44:04.722Z,16.96
2022-09-28T18:46:35.005Z,16.96
2022-09-28T18:49:05.910Z,16.94
2022-09-28T18:51:36.723Z,16.94
2022-09-28T18:54:07.537Z,16.73
2022-09-28T18:56:38.232Z,16.75
2022-09-28T18:59:12.335Z,16.76
2022-09-28T19:01:53.531Z,16.76
2022-09-28T19:04:24.898Z,16.68
2022-09-28T19:06:55.628Z,16.68
2022-09-28T19:09:26.684Z,16.47
2022-09-28T19:11:59.027Z,16.42
2022-09-28T19:14:30.564Z,16.42
2022-09-28T19:17:04.737Z,16.24
2022-09-28T19:19:41.662Z,16.24
2022-09-28T19:22:13.289Z,16.09
2022-09-28T19:24:43.551Z,15.99
2022-09-28T19:27:15.551Z,15.96
2022-09-28T19:29:54.578Z,15.92
2022-09-28T19:32:25.196Z,15.92
2022-09-28T19:34:59.246Z,15.65
2022-09-28T19:37:29.535Z,15.65
2022-09-28T19:40:03.223Z,15.64
2022-09-28T19:42:38.827Z,15.64
2022-09-28T19:45:13.234Z,15.59
2022-09-28T19:47:43.521Z,15.52
2022-09-28T19:50:16.599Z,15.38
2022-09-28T19:52:46.876Z,15.38
2022-09-28T19:55:27.250Z,15.39
2022-09-28T19:58:04.052Z,15.36
2022-09-28T20:00:34.429Z,15.36
2022-09-28T20:03:05.126Z,15.36
2022-09-28T20:05:37.020Z,15.30
2022-09-28T20:08:09.334Z,15.24
2022-09-28T20:10:49.888Z,15.24
2022-09-28T20:13:21.371Z,15.36
2022-09-28T20:15:58.726Z,15.39
2022-09-28T20:18:30.685Z,15.41
2022-09-28T20:21:06.528Z,15.41
2022-09-28T20:23:36.996Z,15.42
2022-09-28T20:26:10.521Z,15.36
2022-09-28T20:28:42.443Z,15.38
2022-09-28T20:31:24.945Z,15.10
2022-09-28T20:33:55.255Z,15.07
2022-09-28T20:36:26.144Z,15.02
2022-09-28T20:38:56.363Z,15.05
2022-09-28T20:41:27.525Z,15.10
2022-09-28T20:44:04.890Z,15.02
2022-09-28T20:46:32.690Z,15.23
2022-09-28T20:49:03.889Z,15.23
2022-09-28T20:51:34.835Z,15.23
2022-09-28T20:54:07.317Z,15.23
2022-09-28T20:56:39.652Z,15.25
2022-09-28T20:59:14.468Z,15.27
2022-09-28T21:01:45.351Z,15.19
2022-09-28T21:04:15.790Z,15.18
2022-09-28T21:06:46.006Z,15.18
2022-09-28T21:09:16.450Z,15.11
2022-09-28T21:11:46.952Z,15.11
2022-09-28T21:14:17.671Z,15.10
2022-09-28T21:16:48.511Z,15.01
2022-09-28T21:19:19.899Z,15.01
2022-09-28T21:21:50.257Z,15.00
2022-09-28T21:24:20.550Z,14.79
2022-09-28T21:26:52.606Z,14.78
2022-09-28T21:29:23.010Z,14.76
2022-09-28T21:31:54.618Z,14.69
2022-09-28T21:34:25.036Z,14.69
2022-09-28T21:36:55.408Z,14.78
2022-09-28T21:39:25.691Z,14.73
2022-09-28T21:41:56.015Z,14.73
2022-09-28T21:44:26.156Z,14.68
2022-09-28T21:46:56.317Z,14.66
2022-09-28T21:49:26.546Z,14.66
2022-09-28T21:51:56.798Z,14.48
2022-09-28T21:54:26.939Z,14.44
2022-09-28T21:56:58.131Z,14.42
2022-09-28T21:59:28.299Z,14.54
2022-09-28T22:01:58.613Z,14.40
2022-09-28T22:04:28.953Z,14.30
2022-09-28T22:06:59.105Z,14.30
2022-09-28T22:09:29.710Z,14.24
2022-09-28T22:11:59.834Z,14.30
2022-09-28T22:14:30.097Z,14.18
2022-09-28T22:17:00.258Z,14.09
2022-09-28T22:19:31.013Z,14.08
2022-09-28T22:22:01.111Z,14.06
2022-09-28T22:24:32.939Z,14.03
2022-09-28T22:27:03.277Z,14.02
2022-09-28T22:29:33.979Z,13.98
2022-09-28T22:32:04.375Z,13.90
2022-09-28T22:34:35.138Z,13.90
2022-09-28T22:37:05.674Z,13.91
2022-09-28T22:39:37.833Z,13.82
2022-09-28T22:42:08.893Z,13.78
2022-09-28T22:44:39.702Z,13.81
2022-09-28T22:47:09.845Z,13.76
2022-09-28T22:49:40.411Z,13.72
2022-09-28T22:52:10.629Z,13.75
2022-09-28T22:54:40.939Z,13.73
2022-09-28T22:57:11.573Z,13.74
2022-09-28T22:59:42.006Z,13.74
2022-09-28T23:02:12.144Z,13.72
2022-09-28T23:04:42.664Z,13.67
2022-09-28T23:07:12.787Z,13.70
2022-09-28T23:09:44.837Z,13.71
2022-09-28T23:12:15.188Z,13.68
2022-09-28T23:14:46.559Z,13.66
2022-09-28T23:17:16.805Z,13.66
2022-09-28T23:20:06.403Z,13.62
2022-09-28T23:22:37.310Z,13.62
2022-09-28T23:25:08.680Z,13.59
2022-09-28T23:27:40.000Z,13.55
2022-09-28T23:30:10.794Z,13.45
2022-09-28T23:32:42.389Z,13.44
2022-09-28T23:35:13.658Z,13.48
2022-09-28T23:37:44.485Z,13.48
2022-09-28T23:40:14.635Z,13.48
2022-09-28T23:42:46.369Z,13.53
2022-09-28T23:45:16.963Z,13.53
2022-09-28T23:47:47.304Z,13.48
2022-09-28T23:50:17.622Z,13.48
2022-09-28T23:52:48.747Z,13.43
2022-09-28T23:55:19.463Z,13.39
2022-09-28T23:57:49.692Z,13.39
